sensor_id;sensor_type;location;lat;lon;timestamp;P1;durP1;ratioP1;P2;durP2;ratioP2
19907;SDS011;10116;53.112;7.356;2022-10-12T00:00:22;2.10;;;2.00;;
19907;SDS011;10116;53.112;7.356;2022-10-12T00:02:48;3.07;;;1.87;;
19907;SDS011;10116;53.112;7.356;2022-10-12T00:05:13;1.70;;;1.60;;
19907;SDS011;10116;53.112;7.356;2022-10-12T00:07:39;2.80;;;2.00;;
19907;SDS011;10116;53.112;7.356;2022-10-12T00:10:05;1.70;;;1.60;;
19907;SDS011;10116;53.112;7.356;2022-10-12T00:12:30;2.30;;;1.70;;
19907;SDS011;10116;53.112;7.356;2022-10-12T00:14:57;1.80;;;1.70;;
19907;SDS011;10116;53.112;7.356;2022-10-12T00:17:23;1.73;;;1.63;;
19907;SDS011;10116;53.112;7.356;2022-10-12T00:19:49;2.10;;;1.90;;
19907;SDS011;10116;53.112;7.356;2022-10-12T00:22:14;1.97;;;1.80;;
19907;SDS011;10116;53.112;7.356;2022-10-12T00:24:40;1.70;;;1.60;;
19907;SDS011;10116;53.112;7.356;2022-10-12T00:27:06;1.60;;;1.50;;
19907;SDS011;10116;53.112;7.356;2022-10-12T00:29:31;2.40;;;1.90;;
19907;SDS011;10116;53.112;7.356;2022-10-12T00:31:57;2.87;;;1.87;;
19907;SDS011;10116;53.112;7.356;2022-10-12T00:34:22;2.10;;;2.00;;
19907;SDS011;10116;53.112;7.356;2022-10-12T00:36:48;2.10;;;1.87;;
19907;SDS011;10116;53.112;7.356;2022-10-12T00:39:14;2.73;;;2.07;;
19907;SDS011;10116;53.112;7.356;2022-10-12T00:41:40;1.90;;;1.70;;
19907;SDS011;10116;53.112;7.356;2022-10-12T00:46:58;1.53;;;1.43;;
19907;SDS011;10116;53.112;7.356;2022-10-12T00:49:27;1.47;;;1.37;;
19907;SDS011;10116;53.112;7.356;2022-10-12T00:51:55;1.67;;;1.57;;
19907;SDS011;10116;53.112;7.356;2022-10-12T00:54:28;2.03;;;1.83;;
19907;SDS011;10116;53.112;7.356;2022-10-12T00:56:57;3.43;;;2.30;;
19907;SDS011;10116;53.112;7.356;2022-10-12T00:59:25;2.17;;;1.90;;
19907;SDS011;10116;53.112;7.356;2022-10-12T01:01:55;2.20;;;1.70;;
19907;SDS011;10116;53.112;7.356;2022-10-12T01:04:21;1.60;;;1.50;;
19907;SDS011;10116;53.112;7.356;2022-10-12T01:06:48;1.90;;;1.80;;
19907;SDS011;10116;53.112;7.356;2022-10-12T01:09:16;1.90;;;1.80;;
19907;SDS011;10116;53.112;7.356;2022-10-12T01:11:42;2.03;;;1.80;;
19907;SDS011;10116;53.112;7.356;2022-10-12T01:14:08;3.80;;;1.80;;
19907;SDS011;10116;53.112;7.356;2022-10-12T01:22:16;1.60;;;1.50;;
19907;SDS011;10116;53.112;7.356;2022-10-12T01:24:48;1.73;;;1.60;;
19907;SDS011;10116;53.112;7.356;2022-10-12T01:30:06;1.50;;;1.40;;
19907;SDS011;10116;53.112;7.356;2022-10-12T01:43:20;1.40;;;1.30;;
19907;SDS011;10116;53.112;7.356;2022-10-12T01:45:47;1.67;;;1.57;;
19907;SDS011;10116;53.112;7.356;2022-10-12T01:48:13;1.60;;;1.50;;
19907;SDS011;10116;53.112;7.356;2022-10-12T01:50:57;1.10;;;1.10;;
19907;SDS011;10116;53.112;7.356;2022-10-12T01:55:54;1.90;;;1.77;;
19907;SDS011;10116;53.112;7.356;2022-10-12T02:06:11;1.60;;;1.50;;
19907;SDS011;10116;53.112;7.356;2022-10-12T02:11:20;2.10;;;1.30;;
19907;SDS011;10116;53.112;7.356;2022-10-12T02:14:06;2.40;;;1.90;;
19907;SDS011;10116;53.112;7.356;2022-10-12T02:16:38;1.40;;;1.40;;
19907;SDS011;10116;53.112;7.356;2022-10-12T02:19:08;1.53;;;1.30;;
19907;SDS011;10116;53.112;7.356;2022-10-12T02:21:37;1.57;;;1.47;;
19907;SDS011;10116;53.112;7.356;2022-10-12T02:24:05;2.40;;;1.70;;
19907;SDS011;10116;53.112;7.356;2022-10-12T02:26:34;1.90;;;1.63;;
19907;SDS011;10116;53.112;7.356;2022-10-12T02:29:02;3.50;;;1.50;;
19907;SDS011;10116;53.112;7.356;2022-10-12T02:32:20;1.77;;;1.47;;
19907;SDS011;10116;53.112;7.356;2022-10-12T02:34:33;3.13;;;1.43;;
19907;SDS011;10116;53.112;7.356;2022-10-12T02:39:52;1.97;;;1.80;;
19907;SDS011;10116;53.112;7.356;2022-10-12T02:42:27;1.53;;;1.43;;
19907;SDS011;10116;53.112;7.356;2022-10-12T02:44:56;1.80;;;1.47;;
19907;SDS011;10116;53.112;7.356;2022-10-12T02:47:24;2.00;;;1.40;;
19907;SDS011;10116;53.112;7.356;2022-10-12T02:49:54;3.40;;;1.80;;
19907;SDS011;10116;53.112;7.356;2022-10-12T02:52:22;1.60;;;1.50;;
19907;SDS011;10116;53.112;7.356;2022-10-12T02:54:48;1.83;;;1.40;;
19907;SDS011;10116;53.112;7.356;2022-10-12T02:57:13;1.77;;;1.67;;
19907;SDS011;10116;53.112;7.356;2022-10-12T02:59:39;3.00;;;1.67;;
19907;SDS011;10116;53.112;7.356;2022-10-12T03:02:05;2.17;;;1.80;;
19907;SDS011;10116;53.112;7.356;2022-10-12T03:04:30;1.53;;;1.10;;
19907;SDS011;10116;53.112;7.356;2022-10-12T03:06:56;1.43;;;1.33;;
19907;SDS011;10116;53.112;7.356;2022-10-12T03:09:22;2.40;;;1.80;;
19907;SDS011;10116;53.112;7.356;2022-10-12T03:11:47;1.77;;;1.30;;
19907;SDS011;10116;53.112;7.356;2022-10-12T03:14:13;1.57;;;1.47;;
19907;SDS011;10116;53.112;7.356;2022-10-12T03:16:40;2.20;;;1.27;;
19907;SDS011;10116;53.112;7.356;2022-10-12T03:19:06;2.50;;;1.60;;
19907;SDS011;10116;53.112;7.356;2022-10-12T03:21:32;1.53;;;1.33;;
19907;SDS011;10116;53.112;7.356;2022-10-12T03:23:57;1.77;;;1.67;;
19907;SDS011;10116;53.112;7.356;2022-10-12T03:26:23;1.33;;;1.20;;
19907;SDS011;10116;53.112;7.356;2022-10-12T03:28:48;1.50;;;1.30;;
19907;SDS011;10116;53.112;7.356;2022-10-12T03:31:14;1.80;;;1.70;;
19907;SDS011;10116;53.112;7.356;2022-10-12T03:33:40;1.77;;;1.67;;
19907;SDS011;10116;53.112;7.356;2022-10-12T03:36:05;1.23;;;1.20;;
19907;SDS011;10116;53.112;7.356;2022-10-12T03:38:31;2.23;;;1.37;;
19907;SDS011;10116;53.112;7.356;2022-10-12T03:40:57;1.80;;;1.70;;
19907;SDS011;10116;53.112;7.356;2022-10-12T03:43:22;2.20;;;1.43;;
19907;SDS011;10116;53.112;7.356;2022-10-12T03:45:48;1.50;;;1.30;;
19907;SDS011;10116;53.112;7.356;2022-10-12T03:48:14;1.60;;;1.37;;
19907;SDS011;10116;53.112;7.356;2022-10-12T03:50:40;2.40;;;1.27;;
19907;SDS011;10116;53.112;7.356;2022-10-12T03:53:05;1.63;;;1.53;;
19907;SDS011;10116;53.112;7.356;2022-10-12T03:55:31;1.23;;;1.13;;
19907;SDS011;10116;53.112;7.356;2022-10-12T03:57:57;1.70;;;1.40;;
19907;SDS011;10116;53.112;7.356;2022-10-12T04:00:23;1.40;;;1.30;;
19907;SDS011;10116;53.112;7.356;2022-10-12T04:02:49;1.20;;;1.20;;
19907;SDS011;10116;53.112;7.356;2022-10-12T04:05:15;1.27;;;1.17;;
19907;SDS011;10116;53.112;7.356;2022-10-12T04:07:40;0.90;;;0.90;;
19907;SDS011;10116;53.112;7.356;2022-10-12T04:10:06;1.30;;;1.30;;
19907;SDS011;10116;53.112;7.356;2022-10-12T04:12:32;1.10;;;1.03;;
19907;SDS011;10116;53.112;7.356;2022-10-12T04:14:58;1.20;;;1.20;;
19907;SDS011;10116;53.112;7.356;2022-10-12T04:17:24;1.43;;;1.33;;
19907;SDS011;10116;53.112;7.356;2022-10-12T04:19:49;1.40;;;1.30;;
19907;SDS011;10116;53.112;7.356;2022-10-12T04:22:15;1.10;;;1.10;;
19907;SDS011;10116;53.112;7.356;2022-10-12T04:24:40;1.40;;;1.13;;
19907;SDS011;10116;53.112;7.356;2022-10-12T04:27:06;1.50;;;1.33;;
19907;SDS011;10116;53.112;7.356;2022-10-12T04:29:32;1.57;;;1.47;;
19907;SDS011;10116;53.112;7.356;2022-10-12T04:31:57;1.73;;;1.30;;
19907;SDS011;10116;53.112;7.356;2022-10-12T04:34:23;1.33;;;1.23;;
19907;SDS011;10116;53.112;7.356;2022-10-12T04:36:48;2.00;;;1.30;;
19907;SDS011;10116;53.112;7.356;2022-10-12T04:39:14;1.40;;;1.30;;
19907;SDS011;10116;53.112;7.356;2022-10-12T04:41:40;3.47;;;1.20;;
19907;SDS011;10116;53.112;7.356;2022-10-12T04:44:06;1.67;;;1.43;;
19907;SDS011;10116;53.112;7.356;2022-10-12T04:46:33;1.97;;;1.57;;
19907;SDS011;10116;53.112;7.356;2022-10-12T04:48:59;1.70;;;1.13;;
19907;SDS011;10116;53.112;7.356;2022-10-12T04:51:24;1.30;;;1.20;;
19907;SDS011;10116;53.112;7.356;2022-10-12T04:53:50;0.90;;;0.90;;
19907;SDS011;10116;53.112;7.356;2022-10-12T04:56:16;1.40;;;1.30;;
19907;SDS011;10116;53.112;7.356;2022-10-12T04:58:42;1.00;;;1.00;;
19907;SDS011;10116;53.112;7.356;2022-10-12T05:01:08;1.10;;;1.00;;
19907;SDS011;10116;53.112;7.356;2022-10-12T05:03:34;1.20;;;1.10;;
19907;SDS011;10116;53.112;7.356;2022-10-12T05:05:59;1.37;;;1.20;;
19907;SDS011;10116;53.112;7.356;2022-10-12T05:08:25;1.30;;;1.20;;
19907;SDS011;10116;53.112;7.356;2022-10-12T05:10:51;1.43;;;1.33;;
19907;SDS011;10116;53.112;7.356;2022-10-12T05:13:16;1.43;;;1.10;;
19907;SDS011;10116;53.112;7.356;2022-10-12T05:15:42;1.03;;;1.00;;
19907;SDS011;10116;53.112;7.356;2022-10-12T05:18:09;1.10;;;1.10;;
19907;SDS011;10116;53.112;7.356;2022-10-12T05:20:35;3.17;;;1.30;;
19907;SDS011;10116;53.112;7.356;2022-10-12T05:23:01;1.37;;;1.27;;
19907;SDS011;10116;53.112;7.356;2022-10-12T05:25:26;1.30;;;1.20;;
19907;SDS011;10116;53.112;7.356;2022-10-12T05:27:55;1.00;;;1.00;;
19907;SDS011;10116;53.112;7.356;2022-10-12T05:30:21;1.53;;;1.30;;
19907;SDS011;10116;53.112;7.356;2022-10-12T05:32:47;1.60;;;1.50;;
19907;SDS011;10116;53.112;7.356;2022-10-12T05:35:13;1.43;;;1.33;;
19907;SDS011;10116;53.112;7.356;2022-10-12T05:37:39;1.43;;;1.33;;
19907;SDS011;10116;53.112;7.356;2022-10-12T05:40:04;1.50;;;1.40;;
19907;SDS011;10116;53.112;7.356;2022-10-12T05:42:31;3.27;;;1.67;;
19907;SDS011;10116;53.112;7.356;2022-10-12T05:44:58;1.97;;;1.10;;
19907;SDS011;10116;53.112;7.356;2022-10-12T05:47:24;1.80;;;1.10;;
19907;SDS011;10116;53.112;7.356;2022-10-12T05:49:50;1.50;;;1.37;;
19907;SDS011;10116;53.112;7.356;2022-10-12T05:52:15;2.10;;;1.10;;
19907;SDS011;10116;53.112;7.356;2022-10-12T05:54:41;2.00;;;1.10;;
19907;SDS011;10116;53.112;7.356;2022-10-12T05:57:06;3.33;;;1.57;;
19907;SDS011;10116;53.112;7.356;2022-10-12T05:59:32;1.50;;;1.40;;
19907;SDS011;10116;53.112;7.356;2022-10-12T06:01:58;1.20;;;1.20;;
19907;SDS011;10116;53.112;7.356;2022-10-12T06:04:23;1.60;;;1.50;;
19907;SDS011;10116;53.112;7.356;2022-10-12T06:06:49;3.53;;;1.70;;
19907;SDS011;10116;53.112;7.356;2022-10-12T06:09:14;1.70;;;1.60;;
19907;SDS011;10116;53.112;7.356;2022-10-12T06:11:40;3.17;;;1.67;;
19907;SDS011;10116;53.112;7.356;2022-10-12T06:14:06;2.37;;;1.53;;
19907;SDS011;10116;53.112;7.356;2022-10-12T06:16:31;2.20;;;1.90;;
19907;SDS011;10116;53.112;7.356;2022-10-12T06:18:57;1.90;;;1.40;;
19907;SDS011;10116;53.112;7.356;2022-10-12T06:21:23;2.97;;;1.90;;
19907;SDS011;10116;53.112;7.356;2022-10-12T06:23:49;2.00;;;1.50;;
19907;SDS011;10116;53.112;7.356;2022-10-12T06:26:14;3.80;;;1.60;;
19907;SDS011;10116;53.112;7.356;2022-10-12T06:28:40;2.23;;;1.53;;
19907;SDS011;10116;53.112;7.356;2022-10-12T06:31:07;3.20;;;1.77;;
19907;SDS011;10116;53.112;7.356;2022-10-12T06:33:33;3.13;;;2.30;;
19907;SDS011;10116;53.112;7.356;2022-10-12T06:35:58;2.97;;;1.80;;
19907;SDS011;10116;53.112;7.356;2022-10-12T06:38:24;2.50;;;2.10;;
19907;SDS011;10116;53.112;7.356;2022-10-12T06:40:50;3.17;;;2.33;;
19907;SDS011;10116;53.112;7.356;2022-10-12T06:43:17;2.43;;;1.97;;
19907;SDS011;10116;53.112;7.356;2022-10-12T06:45:44;2.40;;;2.17;;
19907;SDS011;10116;53.112;7.356;2022-10-12T06:48:09;2.27;;;1.97;;
19907;SDS011;10116;53.112;7.356;2022-10-12T06:50:35;4.03;;;2.00;;
19907;SDS011;10116;53.112;7.356;2022-10-12T06:53:01;2.17;;;1.90;;
19907;SDS011;10116;53.112;7.356;2022-10-12T06:55:27;2.20;;;2.00;;
19907;SDS011;10116;53.112;7.356;2022-10-12T06:57:54;2.40;;;2.10;;
19907;SDS011;10116;53.112;7.356;2022-10-12T07:00:20;3.27;;;2.10;;
19907;SDS011;10116;53.112;7.356;2022-10-12T07:02:49;3.53;;;2.43;;
19907;SDS011;10116;53.112;7.356;2022-10-12T07:05:16;2.90;;;2.33;;
19907;SDS011;10116;53.112;7.356;2022-10-12T07:07:42;2.50;;;2.17;;
19907;SDS011;10116;53.112;7.356;2022-10-12T07:10:08;3.20;;;2.33;;
19907;SDS011;10116;53.112;7.356;2022-10-12T07:12:36;3.63;;;2.50;;
19907;SDS011;10116;53.112;7.356;2022-10-12T07:15:03;6.20;;;2.40;;
19907;SDS011;10116;53.112;7.356;2022-10-12T07:17:29;4.43;;;2.57;;
19907;SDS011;10116;53.112;7.356;2022-10-12T07:19:55;3.53;;;2.40;;
19907;SDS011;10116;53.112;7.356;2022-10-12T07:22:20;3.07;;;2.30;;
19907;SDS011;10116;53.112;7.356;2022-10-12T07:24:46;2.53;;;2.33;;
19907;SDS011;10116;53.112;7.356;2022-10-12T07:27:11;2.90;;;2.10;;
19907;SDS011;10116;53.112;7.356;2022-10-12T07:29:38;7.93;;;2.70;;
19907;SDS011;10116;53.112;7.356;2022-10-12T07:32:04;5.33;;;3.00;;
19907;SDS011;10116;53.112;7.356;2022-10-12T07:34:31;4.37;;;2.47;;
19907;SDS011;10116;53.112;7.356;2022-10-12T07:36:57;5.07;;;2.47;;
19907;SDS011;10116;53.112;7.356;2022-10-12T07:39:23;4.20;;;2.70;;
19907;SDS011;10116;53.112;7.356;2022-10-12T07:41:49;2.97;;;2.67;;
19907;SDS011;10116;53.112;7.356;2022-10-12T07:44:16;3.10;;;2.10;;
19907;SDS011;10116;53.112;7.356;2022-10-12T07:46:43;2.63;;;2.03;;
19907;SDS011;10116;53.112;7.356;2022-10-12T07:49:10;5.23;;;2.73;;
19907;SDS011;10116;53.112;7.356;2022-10-12T07:51:36;3.37;;;2.60;;
19907;SDS011;10116;53.112;7.356;2022-10-12T07:54:02;3.47;;;2.87;;
19907;SDS011;10116;53.112;7.356;2022-10-12T07:56:28;4.20;;;2.93;;
19907;SDS011;10116;53.112;7.356;2022-10-12T07:58:54;4.67;;;2.90;;
19907;SDS011;10116;53.112;7.356;2022-10-12T08:01:21;5.50;;;2.67;;
19907;SDS011;10116;53.112;7.356;2022-10-12T08:03:48;5.60;;;2.53;;
19907;SDS011;10116;53.112;7.356;2022-10-12T08:06:15;5.17;;;2.60;;
19907;SDS011;10116;53.112;7.356;2022-10-12T08:08:42;3.80;;;2.77;;
19907;SDS011;10116;53.112;7.356;2022-10-12T08:11:08;5.20;;;2.73;;
19907;SDS011;10116;53.112;7.356;2022-10-12T08:13:35;4.77;;;2.33;;
19907;SDS011;10116;53.112;7.356;2022-10-12T08:16:03;3.60;;;3.00;;
19907;SDS011;10116;53.112;7.356;2022-10-12T08:18:29;3.70;;;2.63;;
19907;SDS011;10116;53.112;7.356;2022-10-12T08:20:55;5.03;;;2.87;;
19907;SDS011;10116;53.112;7.356;2022-10-12T08:23:21;4.70;;;2.63;;
19907;SDS011;10116;53.112;7.356;2022-10-12T08:25:53;3.70;;;2.67;;
19907;SDS011;10116;53.112;7.356;2022-10-12T08:28:20;4.97;;;3.10;;
19907;SDS011;10116;53.112;7.356;2022-10-12T08:30:46;4.33;;;2.87;;
19907;SDS011;10116;53.112;7.356;2022-10-12T08:33:13;3.20;;;2.73;;
19907;SDS011;10116;53.112;7.356;2022-10-12T08:35:39;5.73;;;3.13;;
19907;SDS011;10116;53.112;7.356;2022-10-12T08:38:06;3.87;;;2.77;;
19907;SDS011;10116;53.112;7.356;2022-10-12T08:40:55;3.03;;;2.60;;
19907;SDS011;10116;53.112;7.356;2022-10-12T08:43:44;5.10;;;2.83;;
19907;SDS011;10116;53.112;7.356;2022-10-12T08:46:26;3.30;;;2.50;;
19907;SDS011;10116;53.112;7.356;2022-10-12T08:49:09;9.60;;;2.70;;
19907;SDS011;10116;53.112;7.356;2022-10-12T08:51:53;3.40;;;2.40;;
19907;SDS011;10116;53.112;7.356;2022-10-12T08:54:22;4.23;;;2.90;;
19907;SDS011;10116;53.112;7.356;2022-10-12T08:56:53;6.57;;;3.03;;
19907;SDS011;10116;53.112;7.356;2022-10-12T08:59:21;4.40;;;2.70;;
19907;SDS011;10116;53.112;7.356;2022-10-12T09:15:02;3.23;;;2.77;;
19907;SDS011;10116;53.112;7.356;2022-10-12T09:17:35;4.60;;;2.70;;
19907;SDS011;10116;53.112;7.356;2022-10-12T09:20:14;4.67;;;2.93;;
19907;SDS011;10116;53.112;7.356;2022-10-12T09:22:53;3.97;;;2.67;;
19907;SDS011;10116;53.112;7.356;2022-10-12T09:25:23;5.00;;;3.13;;
19907;SDS011;10116;53.112;7.356;2022-10-12T09:27:51;2.90;;;2.07;;
19907;SDS011;10116;53.112;7.356;2022-10-12T09:30:18;3.20;;;2.30;;
19907;SDS011;10116;53.112;7.356;2022-10-12T09:35:45;3.70;;;2.90;;
19907;SDS011;10116;53.112;7.356;2022-10-12T09:38:11;4.00;;;2.57;;
19907;SDS011;10116;53.112;7.356;2022-10-12T09:40:37;5.50;;;2.40;;
19907;SDS011;10116;53.112;7.356;2022-10-12T09:43:03;3.83;;;2.60;;
19907;SDS011;10116;53.112;7.356;2022-10-12T09:45:32;3.10;;;2.50;;
19907;SDS011;10116;53.112;7.356;2022-10-12T09:50:52;4.40;;;2.80;;
19907;SDS011;10116;53.112;7.356;2022-10-12T09:55:59;3.93;;;2.63;;
19907;SDS011;10116;53.112;7.356;2022-10-12T09:58:28;4.37;;;3.10;;
19907;SDS011;10116;53.112;7.356;2022-10-12T10:01:15;6.07;;;3.10;;
19907;SDS011;10116;53.112;7.356;2022-10-12T10:04:14;2.50;;;2.20;;
19907;SDS011;10116;53.112;7.356;2022-10-12T10:06:47;5.17;;;2.93;;
19907;SDS011;10116;53.112;7.356;2022-10-12T10:09:27;4.23;;;2.80;;
19907;SDS011;10116;53.112;7.356;2022-10-12T10:12:11;4.93;;;2.60;;
19907;SDS011;10116;53.112;7.356;2022-10-12T10:14:43;2.57;;;2.37;;
19907;SDS011;10116;53.112;7.356;2022-10-12T10:17:16;3.37;;;2.20;;
19907;SDS011;10116;53.112;7.356;2022-10-12T10:19:50;5.63;;;2.70;;
19907;SDS011;10116;53.112;7.356;2022-10-12T10:22:16;2.73;;;2.47;;
19907;SDS011;10116;53.112;7.356;2022-10-12T10:24:43;2.70;;;2.50;;
19907;SDS011;10116;53.112;7.356;2022-10-12T10:27:57;2.60;;;2.40;;
19907;SDS011;10116;53.112;7.356;2022-10-12T10:32:39;6.83;;;2.67;;
19907;SDS011;10116;53.112;7.356;2022-10-12T10:37:57;2.37;;;2.10;;
19907;SDS011;10116;53.112;7.356;2022-10-12T10:40:27;3.67;;;2.30;;
19907;SDS011;10116;53.112;7.356;2022-10-12T10:42:55;3.17;;;2.10;;
19907;SDS011;10116;53.112;7.356;2022-10-12T10:45:24;2.20;;;1.90;;
19907;SDS011;10116;53.112;7.356;2022-10-12T10:47:58;6.50;;;2.60;;
19907;SDS011;10116;53.112;7.356;2022-10-12T10:50:39;5.40;;;2.73;;
19907;SDS011;10116;53.112;7.356;2022-10-12T10:53:21;4.80;;;1.80;;
19907;SDS011;10116;53.112;7.356;2022-10-12T10:58:36;6.60;;;2.57;;
19907;SDS011;10116;53.112;7.356;2022-10-12T11:01:19;4.90;;;2.23;;
19907;SDS011;10116;53.112;7.356;2022-10-12T11:04:03;3.83;;;2.30;;
19907;SDS011;10116;53.112;7.356;2022-10-12T11:06:41;5.00;;;2.30;;
19907;SDS011;10116;53.112;7.356;2022-10-12T11:12:05;3.70;;;2.57;;
19907;SDS011;10116;53.112;7.356;2022-10-12T11:14:49;15.13;;;3.33;;
19907;SDS011;10116;53.112;7.356;2022-10-12T11:17:21;9.63;;;2.77;;
19907;SDS011;10116;53.112;7.356;2022-10-12T11:19:49;8.90;;;3.37;;
19907;SDS011;10116;53.112;7.356;2022-10-12T11:22:36;12.77;;;3.20;;
19907;SDS011;10116;53.112;7.356;2022-10-12T11:25:54;12.93;;;2.80;;
19907;SDS011;10116;53.112;7.356;2022-10-12T11:28:19;14.10;;;3.50;;
19907;SDS011;10116;53.112;7.356;2022-10-12T11:30:47;6.13;;;2.63;;
19907;SDS011;10116;53.112;7.356;2022-10-12T11:35:59;3.70;;;1.90;;
19907;SDS011;10116;53.112;7.356;2022-10-12T11:38:28;6.30;;;2.30;;
19907;SDS011;10116;53.112;7.356;2022-10-12T11:41:13;13.17;;;2.57;;
19907;SDS011;10116;53.112;7.356;2022-10-12T11:44:05;6.77;;;2.07;;
19907;SDS011;10116;53.112;7.356;2022-10-12T11:46:43;7.07;;;2.13;;
19907;SDS011;10116;53.112;7.356;2022-10-12T11:51:54;4.37;;;2.13;;
19907;SDS011;10116;53.112;7.356;2022-10-12T11:54:25;7.50;;;2.20;;
19907;SDS011;10116;53.112;7.356;2022-10-12T11:56:57;5.80;;;1.97;;
19907;SDS011;10116;53.112;7.356;2022-10-12T12:02:28;1.80;;;1.53;;
19907;SDS011;10116;53.112;7.356;2022-10-12T12:04:58;2.93;;;1.67;;
19907;SDS011;10116;53.112;7.356;2022-10-12T12:07:42;9.93;;;2.20;;
19907;SDS011;10116;53.112;7.356;2022-10-12T12:13:14;13.67;;;2.67;;
19907;SDS011;10116;53.112;7.356;2022-10-12T12:23:16;3.60;;;1.60;;
19907;SDS011;10116;53.112;7.356;2022-10-12T12:25:45;7.80;;;1.90;;
19907;SDS011;10116;53.112;7.356;2022-10-12T12:28:27;2.90;;;1.83;;
19907;SDS011;10116;53.112;7.356;2022-10-12T12:30:56;6.60;;;2.30;;
19907;SDS011;10116;53.112;7.356;2022-10-12T12:33:35;7.40;;;2.10;;
19907;SDS011;10116;53.112;7.356;2022-10-12T12:36:06;1.60;;;1.30;;
19907;SDS011;10116;53.112;7.356;2022-10-12T12:38:35;3.80;;;2.27;;
19907;SDS011;10116;53.112;7.356;2022-10-12T12:41:13;8.00;;;1.77;;
19907;SDS011;10116;53.112;7.356;2022-10-12T12:46:10;3.10;;;1.60;;
19907;SDS011;10116;53.112;7.356;2022-10-12T12:51:06;4.43;;;2.10;;
19907;SDS011;10116;53.112;7.356;2022-10-12T12:53:37;4.63;;;2.17;;
19907;SDS011;10116;53.112;7.356;2022-10-12T13:18:54;7.97;;;1.90;;
19907;SDS011;10116;53.112;7.356;2022-10-12T13:21:17;3.90;;;1.40;;
19907;SDS011;10116;53.112;7.356;2022-10-12T13:23:47;3.20;;;1.93;;
19907;SDS011;10116;53.112;7.356;2022-10-12T13:26:25;3.27;;;1.60;;
19907;SDS011;10116;53.112;7.356;2022-10-12T13:28:52;3.60;;;1.70;;
19907;SDS011;10116;53.112;7.356;2022-10-12T13:31:29;2.73;;;1.57;;
19907;SDS011;10116;53.112;7.356;2022-10-12T13:34:11;1.53;;;1.40;;
19907;SDS011;10116;53.112;7.356;2022-10-12T13:37:14;7.23;;;2.30;;
19907;SDS011;10116;53.112;7.356;2022-10-12T13:39:37;12.80;;;2.73;;
19907;SDS011;10116;53.112;7.356;2022-10-12T13:42:07;5.50;;;2.50;;
19907;SDS011;10116;53.112;7.356;2022-10-12T13:44:35;4.17;;;2.30;;
19907;SDS011;10116;53.112;7.356;2022-10-12T13:47:02;5.63;;;2.70;;
19907;SDS011;10116;53.112;7.356;2022-10-12T13:49:45;4.37;;;2.30;;
19907;SDS011;10116;53.112;7.356;2022-10-12T13:54:37;4.57;;;2.20;;
19907;SDS011;10116;53.112;7.356;2022-10-12T13:57:38;5.60;;;2.53;;
19907;SDS011;10116;53.112;7.356;2022-10-12T14:02:43;4.73;;;2.10;;
19907;SDS011;10116;53.112;7.356;2022-10-12T14:05:26;3.20;;;1.87;;
19907;SDS011;10116;53.112;7.356;2022-10-12T14:08:16;3.20;;;2.07;;
19907;SDS011;10116;53.112;7.356;2022-10-12T14:10:43;5.87;;;1.33;;
19907;SDS011;10116;53.112;7.356;2022-10-12T14:13:28;4.43;;;1.90;;
19907;SDS011;10116;53.112;7.356;2022-10-12T14:15:57;7.43;;;2.27;;
19907;SDS011;10116;53.112;7.356;2022-10-12T14:21:04;3.03;;;2.07;;
19907;SDS011;10116;53.112;7.356;2022-10-12T14:23:30;2.23;;;1.83;;
19907;SDS011;10116;53.112;7.356;2022-10-12T14:25:56;9.00;;;1.80;;
19907;SDS011;10116;53.112;7.356;2022-10-12T14:28:31;4.40;;;2.10;;
19907;SDS011;10116;53.112;7.356;2022-10-12T14:31:00;4.00;;;2.40;;
19907;SDS011;10116;53.112;7.356;2022-10-12T14:33:26;8.13;;;2.33;;
19907;SDS011;10116;53.112;7.356;2022-10-12T14:38:49;2.70;;;1.67;;
19907;SDS011;10116;53.112;7.356;2022-10-12T14:44:17;2.13;;;1.80;;
19907;SDS011;10116;53.112;7.356;2022-10-12T14:46:49;4.60;;;2.20;;
19907;SDS011;10116;53.112;7.356;2022-10-12T14:49:25;3.40;;;2.10;;
19907;SDS011;10116;53.112;7.356;2022-10-12T14:51:57;4.90;;;2.27;;
19907;SDS011;10116;53.112;7.356;2022-10-12T14:54:24;2.00;;;1.80;;
19907;SDS011;10116;53.112;7.356;2022-10-12T14:56:50;2.67;;;2.00;;
19907;SDS011;10116;53.112;7.356;2022-10-12T14:59:16;4.20;;;2.00;;
19907;SDS011;10116;53.112;7.356;2022-10-12T15:01:41;2.67;;;1.83;;
19907;SDS011;10116;53.112;7.356;2022-10-12T15:04:09;5.23;;;2.50;;
19907;SDS011;10116;53.112;7.356;2022-10-12T15:06:37;4.63;;;1.87;;
19907;SDS011;10116;53.112;7.356;2022-10-12T15:09:03;3.30;;;1.97;;
19907;SDS011;10116;53.112;7.356;2022-10-12T15:11:28;3.37;;;1.87;;
19907;SDS011;10116;53.112;7.356;2022-10-12T15:13:54;3.20;;;1.60;;
19907;SDS011;10116;53.112;7.356;2022-10-12T15:16:24;3.33;;;1.90;;
19907;SDS011;10116;53.112;7.356;2022-10-12T15:18:51;3.30;;;1.50;;
19907;SDS011;10116;53.112;7.356;2022-10-12T15:21:17;5.00;;;2.10;;
19907;SDS011;10116;53.112;7.356;2022-10-12T15:23:43;4.93;;;1.93;;
19907;SDS011;10116;53.112;7.356;2022-10-12T15:26:13;1.83;;;1.60;;
19907;SDS011;10116;53.112;7.356;2022-10-12T15:28:40;2.10;;;1.70;;
19907;SDS011;10116;53.112;7.356;2022-10-12T15:31:09;2.70;;;1.50;;
19907;SDS011;10116;53.112;7.356;2022-10-12T15:33:39;6.37;;;1.97;;
19907;SDS011;10116;53.112;7.356;2022-10-12T15:36:06;4.90;;;1.90;;
19907;SDS011;10116;53.112;7.356;2022-10-12T15:38:31;4.57;;;2.10;;
19907;SDS011;10116;53.112;7.356;2022-10-12T15:40:57;3.80;;;2.07;;
19907;SDS011;10116;53.112;7.356;2022-10-12T15:43:23;4.73;;;2.17;;
19907;SDS011;10116;53.112;7.356;2022-10-12T15:45:49;4.47;;;1.77;;
19907;SDS011;10116;53.112;7.356;2022-10-12T15:48:15;3.27;;;1.93;;
19907;SDS011;10116;53.112;7.356;2022-10-12T15:53:09;1.77;;;1.67;;
19907;SDS011;10116;53.112;7.356;2022-10-12T15:55:39;2.03;;;1.47;;
19907;SDS011;10116;53.112;7.356;2022-10-12T15:58:05;2.80;;;1.60;;
19907;SDS011;10116;53.112;7.356;2022-10-12T16:00:31;3.67;;;1.50;;
19907;SDS011;10116;53.112;7.356;2022-10-12T16:02:57;3.60;;;2.07;;
19907;SDS011;10116;53.112;7.356;2022-10-12T16:05:25;3.00;;;1.97;;
19907;SDS011;10116;53.112;7.356;2022-10-12T16:07:55;3.30;;;2.40;;
19907;SDS011;10116;53.112;7.356;2022-10-12T16:10:24;3.67;;;1.93;;
19907;SDS011;10116;53.112;7.356;2022-10-12T16:12:53;4.73;;;2.30;;
19907;SDS011;10116;53.112;7.356;2022-10-12T16:15:20;9.93;;;6.37;;
19907;SDS011;10116;53.112;7.356;2022-10-12T16:17:53;16.57;;;9.60;;
19907;SDS011;10116;53.112;7.356;2022-10-12T16:20:19;15.87;;;10.60;;
19907;SDS011;10116;53.112;7.356;2022-10-12T16:22:45;14.33;;;10.70;;
19907;SDS011;10116;53.112;7.356;2022-10-12T16:25:12;21.00;;;11.53;;
19907;SDS011;10116;53.112;7.356;2022-10-12T16:27:40;16.00;;;11.67;;
19907;SDS011;10116;53.112;7.356;2022-10-12T16:30:07;12.33;;;10.03;;
19907;SDS011;10116;53.112;7.356;2022-10-12T16:32:33;13.60;;;9.20;;
19907;SDS011;10116;53.112;7.356;2022-10-12T16:34:59;14.07;;;9.80;;
19907;SDS011;10116;53.112;7.356;2022-10-12T16:37:24;12.97;;;9.17;;
19907;SDS011;10116;53.112;7.356;2022-10-12T16:39:53;13.20;;;5.63;;
19907;SDS011;10116;53.112;7.356;2022-10-12T16:42:19;18.17;;;5.60;;
19907;SDS011;10116;53.112;7.356;2022-10-12T16:44:45;17.27;;;6.50;;
19907;SDS011;10116;53.112;7.356;2022-10-12T16:47:11;9.23;;;4.90;;
19907;SDS011;10116;53.112;7.356;2022-10-12T16:49:37;12.50;;;5.70;;
19907;SDS011;10116;53.112;7.356;2022-10-12T16:52:03;11.83;;;5.30;;
19907;SDS011;10116;53.112;7.356;2022-10-12T16:54:29;7.63;;;5.20;;
19907;SDS011;10116;53.112;7.356;2022-10-12T16:56:55;14.30;;;6.17;;
19907;SDS011;10116;53.112;7.356;2022-10-12T16:59:21;9.83;;;6.00;;
19907;SDS011;10116;53.112;7.356;2022-10-12T17:01:47;8.80;;;5.63;;
19907;SDS011;10116;53.112;7.356;2022-10-12T17:04:13;11.20;;;6.27;;
19907;SDS011;10116;53.112;7.356;2022-10-12T17:06:39;10.93;;;6.33;;
19907;SDS011;10116;53.112;7.356;2022-10-12T17:09:05;9.60;;;4.90;;